Time;durP1;ratioP1;P1;durP2;ratioP2;P2;SDS_P1;SDS_P2;PMS_P1;PMS_P2;Temp;Humidity;BMP_temperature;BMP_pressure;BME280_temperature;BME280_humidity;BME280_pressure;Samples;Min_cycle;Max_cycle;Signal;HPM_P1;HPM_P2
2022/07/19 00:00:13;;;;;;;;;;;;;;;16.96;100.00;101534.69;4900785;29;20010;-77
2022/07/19 00:02:38;;;;;;;;;;;;;;;16.99;100.00;101530.69;4896183;29;19967;-77
2022/07/19 00:05:04;;;;;;;;;;;;;;;17.01;100.00;101531.28;4918781;29;19954;-77
2022/07/19 00:07:29;;;;;;;;;;;;;;;16.98;100.00;101526.28;4900484;29;19920;-77
2022/07/19 00:09:55;;;;;;;;;;;;;;;16.98;100.00;101523.56;4888120;29;20281;-77
2022/07/19 00:12:20;;;;;;;;;;;;;;;17.01;100.00;101515.81;4916474;29;20342;-78
2022/07/19 00:14:46;;;;;;;;;;;;;;;17.10;100.00;101527.22;4914221;29;19930;-77
2022/07/19 00:17:13;;;;;;;;;;;;;;;17.24;100.00;101534.19;4918106;29;19983;-76
2022/07/19 00:19:38;;;;;;;;;;;;;;;17.34;100.00;101522.78;4901611;29;19919;-77
2022/07/19 00:22:04;;;;;;;;;;;;;;;17.37;100.00;101520.44;4918844;29;19915;-76
2022/07/19 00:24:29;;;;;;;;;;;;;;;17.45;100.00;101519.31;4919078;29;19927;-77
2022/07/19 00:26:54;;;;;;;;;;;;;;;17.45;100.00;101524.75;4902494;29;19923;-77
2022/07/19 00:29:19;;;;;;;;;;;;;;;17.49;100.00;101525.13;4902483;29;19919;-77
2022/07/19 00:31:44;;;;;;;;;;;;;;;17.51;100.00;101531.16;4918957;29;20265;-77
2022/07/19 00:34:10;;;;;;;;;;;;;;;17.49;100.00;101531.41;4919123;29;20022;-77
2022/07/19 00:36:35;;;;;;;;;;;;;;;17.49;100.00;101530.59;4902822;29;19978;-77
2022/07/19 00:39:00;;;;;;;;;;;;;;;17.53;100.00;101537.22;4885747;29;19916;-77
2022/07/19 00:41:26;;;;;;;;;;;;;;;17.52;100.00;101538.28;4899406;29;20011;-77
2022/07/19 00:43:51;;;;;;;;;;;;;;;17.50;100.00;101538.50;4898379;29;20007;-77
2022/07/19 00:46:18;;;;;;;;;;;;;;;17.44;100.00;101535.84;4883564;29;19919;-77
2022/07/19 00:48:43;;;;;;;;;;;;;;;17.37;100.00;101539.47;4882652;29;20282;-77
2022/07/19 00:51:09;;;;;;;;;;;;;;;17.33;100.00;101537.44;4898756;29;19991;-77
2022/07/19 00:53:36;;;;;;;;;;;;;;;17.32;100.00;101541.25;4883625;29;19931;-77
2022/07/19 00:56:03;;;;;;;;;;;;;;;17.31;100.00;101532.22;4900140;29;19998;-77
2022/07/19 00:58:28;;;;;;;;;;;;;;;17.33;100.00;101538.28;4900181;29;20417;-77
2022/07/19 01:00:53;;;;;;;;;;;;;;;17.30;100.00;101532.47;4902098;29;19975;-77
2022/07/19 01:03:19;;;;;;;;;;;;;;;17.32;100.00;101547.50;4900894;29;19930;-77
2022/07/19 01:05:45;;;;;;;;;;;;;;;17.35;100.00;101535.31;4884210;29;19967;-77
2022/07/19 01:08:10;;;;;;;;;;;;;;;17.28;100.00;101543.53;4902454;29;19928;-77
2022/07/19 01:10:35;;;;;;;;;;;;;;;17.14;100.00;101544.75;4903458;29;19916;-77
2022/07/19 01:13:00;;;;;;;;;;;;;;;17.02;100.00;101544.69;4903852;29;19923;-77
2022/07/19 01:15:26;;;;;;;;;;;;;;;17.09;100.00;101544.59;4903909;29;19931;-77
2022/07/19 01:17:52;;;;;;;;;;;;;;;17.19;100.00;101541.38;4887174;29;19915;-77
2022/07/19 01:20:18;;;;;;;;;;;;;;;17.31;100.00;101551.25;4903445;29;19924;-77
2022/07/19 01:22:44;;;;;;;;;;;;;;;17.35;100.00;101541.63;4887013;29;19916;-77
2022/07/19 01:25:09;;;;;;;;;;;;;;;17.35;100.00;101529.88;4903551;29;19943;-77
2022/07/19 01:27:42;;;;;;;;;;;;;;;17.33;100.00;101534.72;4903505;29;19986;-77
2022/07/19 01:30:14;;;;;;;;;;;;;;;17.31;100.00;101523.22;4886841;29;19919;-77
2022/07/19 01:32:39;;;;;;;;;;;;;;;17.29;100.00;101528.91;4890802;29;19928;-76
2022/07/19 01:35:05;;;;;;;;;;;;;;;17.27;100.00;101533.72;4908601;29;20406;-77
2022/07/19 01:37:31;;;;;;;;;;;;;;;17.28;100.00;101538.09;4886571;29;19939;-77
2022/07/19 01:39:58;;;;;;;;;;;;;;;17.34;100.00;101539.09;4890896;29;19920;-77
2022/07/19 01:42:23;;;;;;;;;;;;;;;17.34;100.00;101548.09;4908125;29;19942;-76
2022/07/19 01:44:49;;;;;;;;;;;;;;;17.35;100.00;101546.19;4925491;29;20397;-76
2022/07/19 01:47:14;;;;;;;;;;;;;;;17.35;100.00;101549.78;4914570;29;20010;-76
2022/07/19 01:49:39;;;;;;;;;;;;;;;17.34;100.00;101542.66;4922083;29;19919;-77
2022/07/19 01:52:04;;;;;;;;;;;;;;;17.35;100.00;101547.06;4907310;29;19998;-77
2022/07/19 01:54:30;;;;;;;;;;;;;;;17.35;100.00;101548.91;4916278;29;19927;-77
2022/07/19 01:56:55;;;;;;;;;;;;;;;17.31;100.00;101542.28;4920124;29;20494;-77
2022/07/19 01:59:20;;;;;;;;;;;;;;;17.32;100.00;101544.78;4904034;29;20318;-77
2022/07/19 02:01:45;;;;;;;;;;;;;;;17.35;100.00;101546.19;4904775;29;20409;-77
2022/07/19 02:04:10;;;;;;;;;;;;;;;17.35;100.00;101554.34;4921319;29;19926;-77
2022/07/19 02:06:36;;;;;;;;;;;;;;;17.35;100.00;101555.22;4905113;29;19942;-77
2022/07/19 02:09:01;;;;;;;;;;;;;;;17.33;100.00;101556.50;4889329;29;19927;-77
2022/07/19 02:11:35;;;;;;;;;;;;;;;17.30;100.00;101551.50;4905054;29;19942;-77
2022/07/19 02:14:01;;;;;;;;;;;;;;;17.26;100.00;101547.56;4904893;29;19923;-76
2022/07/19 02:16:26;;;;;;;;;;;;;;;17.24;100.00;101547.78;4905048;29;20254;-76
2022/07/19 02:18:52;;;;;;;;;;;;;;;17.23;100.00;101546.13;4888564;29;19923;-77
2022/07/19 02:21:17;;;;;;;;;;;;;;;17.20;100.00;101548.47;4904917;29;19919;-77
2022/07/19 02:23:42;;;;;;;;;;;;;;;17.21;100.00;101544.69;4890641;29;20420;-77
2022/07/19 02:26:08;;;;;;;;;;;;;;;17.18;100.00;101539.69;4894444;29;19930;-77
2022/07/19 02:28:33;;;;;;;;;;;;;;;17.16;100.00;101539.09;4866219;29;20338;-77
2022/07/19 02:30:58;;;;;;;;;;;;;;;17.13;100.00;101545.81;4895086;29;19942;-77
2022/07/19 02:33:23;;;;;;;;;;;;;;;17.12;100.00;101550.44;4904798;29;19920;-76
2022/07/19 02:35:49;;;;;;;;;;;;;;;17.16;100.00;101545.38;4903931;29;19927;-77
2022/07/19 02:38:14;;;;;;;;;;;;;;;17.20;100.00;101540.31;4921344;29;19919;-77
2022/07/19 02:40:39;;;;;;;;;;;;;;;17.20;100.00;101543.84;4920451;29;20231;-77
2022/07/19 02:43:04;;;;;;;;;;;;;;;17.28;100.00;101551.72;4904314;29;20373;-77
2022/07/19 02:45:31;;;;;;;;;;;;;;;17.31;100.00;101551.25;4902531;29;19919;-77
2022/07/19 02:47:56;;;;;;;;;;;;;;;17.35;100.00;101549.78;4903608;29;20261;-76
2022/07/19 02:50:22;;;;;;;;;;;;;;;17.42;100.00;101557.00;4919243;29;19915;-77
2022/07/19 02:52:47;;;;;;;;;;;;;;;17.47;100.00;101558.00;4903636;29;20316;-77
2022/07/19 02:55:12;;;;;;;;;;;;;;;17.48;100.00;101556.97;4903557;29;20401;-77
2022/07/19 02:57:37;;;;;;;;;;;;;;;17.56;100.00;101563.97;4903579;29;19923;-77
2022/07/19 03:00:05;;;;;;;;;;;;;;;17.69;100.00;101572.00;4888596;29;20071;-76
2022/07/19 03:02:30;;;;;;;;;;;;;;;17.92;100.00;101573.22;4904205;29;19916;-77
2022/07/19 03:04:55;;;;;;;;;;;;;;;18.12;100.00;101573.78;4904254;29;19926;-77
2022/07/19 03:07:21;;;;;;;;;;;;;;;18.27;100.00;101579.63;4920806;29;19919;-76
2022/07/19 03:09:47;;;;;;;;;;;;;;;18.48;100.00;101577.47;4888704;29;19927;-77
2022/07/19 03:12:12;;;;;;;;;;;;;;;18.52;100.00;101578.66;4888707;29;20009;-76
2022/07/19 03:14:38;;;;;;;;;;;;;;;18.70;100.00;101567.66;4888504;29;20009;-77
2022/07/19 03:17:04;;;;;;;;;;;;;;;19.02;100.00;101578.28;4890398;29;19930;-76
2022/07/19 03:19:29;;;;;;;;;;;;;;;19.37;100.00;101580.16;4900646;29;19919;-76
2022/07/19 03:21:54;;;;;;;;;;;;;;;19.59;100.00;101580.38;4885577;29;19977;-76
2022/07/19 03:24:20;;;;;;;;;;;;;;;19.62;100.00;101574.44;4921068;29;19904;-76
2022/07/19 03:26:45;;;;;;;;;;;;;;;19.34;100.00;101576.03;4923853;29;19931;-78
2022/07/19 03:29:10;;;;;;;;;;;;;;;19.25;100.00;101585.63;4889700;29;20376;-76
2022/07/19 03:31:36;;;;;;;;;;;;;;;19.53;100.00;101587.63;4871488;29;19952;-77
2022/07/19 03:34:02;;;;;;;;;;;;;;;19.78;100.00;101586.56;4909336;29;19942;-77
2022/07/19 03:36:27;;;;;;;;;;;;;;;20.04;100.00;101587.91;4908207;29;19916;-77
2022/07/19 03:38:53;;;;;;;;;;;;;;;20.16;100.00;101592.25;4875030;29;19930;-77
2022/07/19 03:41:18;;;;;;;;;;;;;;;20.42;100.00;101589.97;4905337;29;19931;-77
2022/07/19 03:43:44;;;;;;;;;;;;;;;20.62;100.00;101582.16;4900742;29;19926;-77
2022/07/19 03:46:09;;;;;;;;;;;;;;;20.82;100.00;101578.09;4902067;29;20006;-77
2022/07/19 03:48:34;;;;;;;;;;;;;;;21.10;100.00;101580.75;4868228;29;19924;-77
2022/07/19 03:50:59;;;;;;;;;;;;;;;21.23;100.00;101585.06;4884266;29;19982;-77
2022/07/19 03:53:26;;;;;;;;;;;;;;;21.38;100.00;101579.00;4868848;29;19924;-77
2022/07/19 03:55:51;;;;;;;;;;;;;;;21.63;100.00;101581.25;4884284;29;20254;-77
2022/07/19 03:58:18;;;;;;;;;;;;;;;21.71;100.00;101586.28;4900710;29;19948;-77
2022/07/19 04:00:45;;;;;;;;;;;;;;;21.77;100.00;101582.53;4897743;29;19923;-77
2022/07/19 04:03:10;;;;;;;;;;;;;;;22.13;100.00;101587.59;4902021;29;20006;-77
2022/07/19 04:05:35;;;;;;;;;;;;;;;22.36;100.00;101592.81;4917646;29;20010;-77
2022/07/19 04:08:01;;;;;;;;;;;;;;;22.28;100.00;101594.13;4888905;29;20346;-77
2022/07/19 04:10:26;;;;;;;;;;;;;;;22.13;100.00;101587.59;4919993;29;19915;-77
2022/07/19 04:12:52;;;;;;;;;;;;;;;22.40;100.00;101591.19;4919443;29;20026;-77
2022/07/19 04:15:17;;;;;;;;;;;;;;;22.85;100.00;101598.19;4919502;29;20010;-77
2022/07/19 04:17:43;;;;;;;;;;;;;;;23.08;100.00;101596.19;4919134;29;19919;-77
2022/07/19 04:20:08;;;;;;;;;;;;;;;23.53;100.00;101603.06;4887320;29;19974;-77
2022/07/19 04:22:33;;;;;;;;;;;;;;;23.87;100.00;101604.38;4918726;29;19915;-77
2022/07/19 04:24:58;;;;;;;;;;;;;;;24.26;98.23;101608.59;4922885;29;19919;-77
2022/07/19 04:27:24;;;;;;;;;;;;;;;24.39;95.90;101608.09;4922888;29;20015;-77
2022/07/19 04:29:49;;;;;;;;;;;;;;;24.50;97.26;101606.19;4905213;29;19934;-77
2022/07/19 04:32:14;;;;;;;;;;;;;;;24.35;97.07;101610.56;4868472;29;20316;-77
2022/07/19 04:34:39;;;;;;;;;;;;;;;24.24;97.24;101608.91;4899118;29;20371;-77
2022/07/19 04:37:05;;;;;;;;;;;;;;;24.37;95.71;101608.38;4898072;29;20449;-77
2022/07/19 04:39:30;;;;;;;;;;;;;;;24.39;95.89;101606.16;4899966;29;19934;-77
2022/07/19 04:41:55;;;;;;;;;;;;;;;24.05;95.86;101600.31;4899555;29;19919;-77
2022/07/19 04:44:21;;;;;;;;;;;;;;;24.17;96.25;101604.72;4899404;29;19947;-77
2022/07/19 04:46:46;;;;;;;;;;;;;;;24.37;94.68;101608.38;4899354;29;19919;-77
2022/07/19 04:49:11;;;;;;;;;;;;;;;24.55;93.93;101608.97;4883736;29;19919;-77
2022/07/19 04:51:36;;;;;;;;;;;;;;;24.36;95.37;101609.44;4883613;29;19919;-77
2022/07/19 04:54:01;;;;;;;;;;;;;;;24.41;94.09;101602.34;4900131;29;20298;-77
2022/07/19 04:56:27;;;;;;;;;;;;;;;24.17;93.76;101611.03;4883657;29;19919;-77
2022/07/19 04:58:52;;;;;;;;;;;;;;;24.40;92.53;101606.97;4882222;29;20342;-77
2022/07/19 05:01:17;;;;;;;;;;;;;;;24.26;92.97;101603.09;4892722;29;19923;-77
2022/07/19 05:03:42;;;;;;;;;;;;;;;24.05;93.71;101604.97;4866307;29;19995;-77
2022/07/19 05:06:08;;;;;;;;;;;;;;;23.40;95.79;101602.44;4885752;29;19916;-77
2022/07/19 05:08:33;;;;;;;;;;;;;;;22.59;99.82;101607.31;4921818;29;19912;-77
2022/07/19 05:10:58;;;;;;;;;;;;;;;22.29;100.00;101603.16;4902281;29;20273;-77
2022/07/19 05:13:23;;;;;;;;;;;;;;;22.60;100.00;101604.28;4883320;29;19975;-77
2022/07/19 05:15:49;;;;;;;;;;;;;;;22.42;100.00;101605.50;4899845;29;19982;-77
2022/07/19 05:18:14;;;;;;;;;;;;;;;22.16;100.00;101606.31;4899661;29;20286;-77
2022/07/19 05:20:39;;;;;;;;;;;;;;;22.10;100.00;101610.03;4862452;29;20262;-77
2022/07/19 05:23:04;;;;;;;;;;;;;;;21.95;100.00;101611.53;4895270;29;20253;-77
2022/07/19 05:25:29;;;;;;;;;;;;;;;21.90;100.00;101605.97;4917127;29;20246;-77
2022/07/19 05:27:56;;;;;;;;;;;;;;;21.82;100.00;101606.44;4917743;29;19973;-77
2022/07/19 05:30:23;;;;;;;;;;;;;;;21.83;100.00;101607.25;4896852;29;19935;-77
2022/07/19 05:32:48;;;;;;;;;;;;;;;21.70;100.00;101608.47;4909413;29;19923;-77
2022/07/19 05:35:14;;;;;;;;;;;;;;;21.69;100.00;101607.63;4889069;29;20354;-77
2022/07/19 05:37:39;;;;;;;;;;;;;;;21.70;100.00;101609.28;4889750;29;19954;-77
2022/07/19 05:40:05;;;;;;;;;;;;;;;21.66;100.00;101612.78;4886140;29;19938;-77
2022/07/19 05:42:30;;;;;;;;;;;;;;;21.72;100.00;101618.09;4888228;29;19926;-77
2022/07/19 05:44:55;;;;;;;;;;;;;;;21.76;100.00;101626.63;4863232;29;20003;-77
2022/07/19 05:47:20;;;;;;;;;;;;;;;21.69;100.00;101628.69;4879377;29;20323;-77
2022/07/19 05:49:46;;;;;;;;;;;;;;;21.66;100.00;101638.28;4878938;29;20359;-78
2022/07/19 05:52:11;;;;;;;;;;;;;;;21.42;100.00;101637.63;4881118;29;19926;-77
2022/07/19 05:54:36;;;;;;;;;;;;;;;21.15;100.00;101636.63;4914498;29;19920;-78
2022/07/19 05:57:01;;;;;;;;;;;;;;;21.34;100.00;101638.91;4888438;29;19979;-77
2022/07/19 05:59:27;;;;;;;;;;;;;;;21.62;100.00;101628.06;4903468;29;19915;-78
2022/07/19 06:01:52;;;;;;;;;;;;;;;21.65;100.00;101622.91;4904886;29;19920;-78
2022/07/19 06:04:17;;;;;;;;;;;;;;;21.55;100.00;101614.53;4889209;29;19932;-78
2022/07/19 06:06:44;;;;;;;;;;;;;;;21.55;100.00;101634.53;4905141;29;19919;-78
2022/07/19 06:09:11;;;;;;;;;;;;;;;21.54;100.00;101630.16;4889461;29;19963;-78
2022/07/19 06:11:37;;;;;;;;;;;;;;;21.67;100.00;101633.63;4921846;29;19923;-78
2022/07/19 06:14:02;;;;;;;;;;;;;;;21.81;100.00;101623.94;4922051;29;19993;-78
2022/07/19 06:16:28;;;;;;;;;;;;;;;21.85;100.00;101616.03;4921624;29;19915;-79
2022/07/19 06:18:53;;;;;;;;;;;;;;;21.84;100.00;101626.16;4921808;29;19915;-78
2022/07/19 06:21:20;;;;;;;;;;;;;;;21.94;100.00;101631.78;4904845;29;19982;-79
2022/07/19 06:23:45;;;;;;;;;;;;;;;21.90;100.00;101627.06;4875680;29;19924;-78
2022/07/19 06:26:11;;;;;;;;;;;;;;;21.84;100.00;101630.81;4907511;29;20389;-78
2022/07/19 06:28:37;;;;;;;;;;;;;;;21.72;100.00;101626.31;4913452;29;19915;-78
2022/07/19 06:31:02;;;;;;;;;;;;;;;21.56;100.00;101616.22;4908495;29;19923;-76
2022/07/19 06:33:27;;;;;;;;;;;;;;;21.51;100.00;101595.06;4884659;29;20373;-78
2022/07/19 06:35:52;;;;;;;;;;;;;;;21.50;100.00;101576.16;4899792;29;19992;-78
2022/07/19 06:38:18;;;;;;;;;;;;;;;21.58;100.00;101571.03;4902825;29;19979;-78
2022/07/19 06:40:43;;;;;;;;;;;;;;;21.61;100.00;101553.28;4912908;29;19931;-78
2022/07/19 06:43:09;;;;;;;;;;;;;;;21.49;100.00;101527.94;4898755;29;20346;-78
2022/07/19 06:45:34;;;;;;;;;;;;;;;21.47;100.00;101530.94;4910749;29;19929;-78
2022/07/19 06:47:59;;;;;;;;;;;;;;;21.55;100.00;101568.81;4910445;29;19999;-77
2022/07/19 06:50:24;;;;;;;;;;;;;;;21.44;100.00;101602.63;4911747;29;19915;-77
2022/07/19 06:52:51;;;;;;;;;;;;;;;21.33;100.00;101587.94;4876837;29;19934;-78
2022/07/19 06:55:17;;;;;;;;;;;;;;;21.11;100.00;101592.53;4890368;29;20366;-77
2022/07/19 06:57:42;;;;;;;;;;;;;;;20.96;100.00;101603.22;4904714;29;19919;-77
2022/07/19 07:00:09;;;;;;;;;;;;;;;20.87;100.00;101619.25;4900022;29;19919;-79
2022/07/19 07:02:36;;;;;;;;;;;;;;;20.83;100.00;101638.06;4884789;29;20010;-79
2022/07/19 07:05:02;;;;;;;;;;;;;;;20.79;100.00;101650.53;4904770;29;20353;-79
2022/07/19 07:07:27;;;;;;;;;;;;;;;20.85;100.00;101649.56;4883746;29;19916;-79
2022/07/19 07:09:53;;;;;;;;;;;;;;;21.18;100.00;101660.78;4898570;29;19931;-79
2022/07/19 07:12:18;;;;;;;;;;;;;;;21.61;100.00;101681.19;4908142;29;19941;-79
2022/07/19 07:14:43;;;;;;;;;;;;;;;21.96;100.00;101681.69;4893673;29;20302;-79
2022/07/19 07:17:08;;;;;;;;;;;;;;;22.38;100.00;101686.59;4908419;29;19934;-79
2022/07/19 07:19:33;;;;;;;;;;;;;;;22.24;100.00;101696.31;4885895;29;19930;-79
2022/07/19 07:22:00;;;;;;;;;;;;;;;21.88;100.00;101684.03;4898860;29;19924;-79
2022/07/19 07:24:26;;;;;;;;;;;;;;;21.47;100.00;101695.22;4898785;29;19916;-79
2022/07/19 07:26:51;;;;;;;;;;;;;;;21.31;100.00;101696.03;4900584;29;20102;-79
2022/07/19 07:29:16;;;;;;;;;;;;;;;21.35;100.00;101702.69;4901580;29;19986;-81
2022/07/19 07:31:42;;;;;;;;;;;;;;;21.40;100.00;101697.31;4899020;29;19919;-79
2022/07/19 07:34:07;;;;;;;;;;;;;;;21.31;100.00;101705.06;4879569;29;19927;-79
2022/07/19 07:36:32;;;;;;;;;;;;;;;21.22;100.00;101709.28;4868373;29;19931;-79
2022/07/19 07:38:57;;;;;;;;;;;;;;;21.15;100.00;101710.53;4898487;29;20532;-79
2022/07/19 07:41:22;;;;;;;;;;;;;;;21.13;100.00;101715.44;4899737;29;20030;-80
2022/07/19 07:43:48;;;;;;;;;;;;;;;21.09;100.00;101715.94;4899824;29;20011;-79
2022/07/19 07:46:14;;;;;;;;;;;;;;;21.03;100.00;101702.41;4899928;29;20022;-79
2022/07/19 07:48:39;;;;;;;;;;;;;;;21.03;100.00;101695.03;4884539;29;19915;-79
2022/07/19 07:51:06;;;;;;;;;;;;;;;20.95;100.00;101684.47;4886915;29;19934;-79
2022/07/19 07:53:31;;;;;;;;;;;;;;;20.90;100.00;101683.56;4905597;29;19928;-79
2022/07/19 07:55:56;;;;;;;;;;;;;;;20.94;100.00;101671.06;4900555;29;20010;-78
2022/07/19 07:58:22;;;;;;;;;;;;;;;21.09;100.00;101679.50;4901195;29;19930;-78
2022/07/19 08:00:47;;;;;;;;;;;;;;;21.22;100.00;101689.31;4900749;29;19958;-78
2022/07/19 08:03:13;;;;;;;;;;;;;;;21.50;100.00;101685.69;4883450;29;19940;-78
2022/07/19 08:05:39;;;;;;;;;;;;;;;21.73;100.00;101669.03;4881382;29;20337;-78
2022/07/19 08:08:04;;;;;;;;;;;;;;;21.77;100.00;101664.72;4883070;29;19994;-78
2022/07/19 08:10:32;;;;;;;;;;;;;;;21.74;100.00;101675.34;4882517;29;19916;-78
2022/07/19 08:13:00;;;;;;;;;;;;;;;21.64;100.00;101675.19;4900228;29;20336;-78
2022/07/19 08:15:25;;;;;;;;;;;;;;;21.53;100.00;101675.06;4899563;29;20358;-78
2022/07/19 08:17:50;;;;;;;;;;;;;;;21.44;100.00;101673.81;4900638;29;19927;-78
2022/07/19 08:20:16;;;;;;;;;;;;;;;21.42;100.00;101686.09;4907761;29;19926;-78
2022/07/19 08:22:41;;;;;;;;;;;;;;;21.24;100.00;101687.16;4888445;29;20006;-78
2022/07/19 08:25:07;;;;;;;;;;;;;;;21.05;100.00;101701.06;4896330;29;19934;-78
2022/07/19 08:27:35;;;;;;;;;;;;;;;20.98;100.00;101707.78;4882305;29;19916;-78
2022/07/19 08:30:01;;;;;;;;;;;;;;;20.99;100.00;101710.28;4914005;29;20014;-78
2022/07/19 08:32:26;;;;;;;;;;;;;;;20.96;100.00;101731.81;4902111;29;19962;-78
2022/07/19 08:34:51;;;;;;;;;;;;;;;20.91;100.00;101743.50;4901017;29;19957;-79
2022/07/19 08:37:17;;;;;;;;;;;;;;;20.91;100.00;101748.16;4902022;29;20347;-80
2022/07/19 08:39:42;;;;;;;;;;;;;;;20.85;100.00;101761.72;4918401;29;19915;-78
2022/07/19 08:42:09;;;;;;;;;;;;;;;21.08;100.00;101774.47;4919154;29;20357;-78
2022/07/19 08:44:35;;;;;;;;;;;;;;;21.49;100.00;101771.63;4890185;29;20345;-78
2022/07/19 08:47:01;;;;;;;;;;;;;;;21.84;100.00;101760.41;4913007;29;20339;-78
2022/07/19 08:49:27;;;;;;;;;;;;;;;22.05;100.00;101762.41;4882697;29;19978;-78
2022/07/19 08:51:53;;;;;;;;;;;;;;;22.15;100.00;101753.50;4870936;29;20381;-78
2022/07/19 08:54:19;;;;;;;;;;;;;;;22.27;100.00;101748.72;4883030;29;19923;-78
2022/07/19 08:59:30;;;;;;;;;;;;;;;21.96;100.00;101754.84;4914284;29;19917;-78
2022/07/19 09:01:56;;;;;;;;;;;;;;;21.75;100.00;101759.19;4876280;29;19919;-80
2022/07/19 09:04:21;;;;;;;;;;;;;;;21.65;100.00;101759.84;4867329;29;19930;-80
2022/07/19 09:06:48;;;;;;;;;;;;;;;21.62;100.00;101771.31;4899287;29;20295;-80
2022/07/19 09:09:15;;;;;;;;;;;;;;;21.60;100.00;101767.19;4888389;29;19924;-80
2022/07/19 09:11:48;;;;;;;;;;;;;;;21.51;100.00;101773.06;4908269;29;19952;-80
2022/07/19 09:14:14;;;;;;;;;;;;;;;21.45;100.00;101765.81;4904177;29;20334;-80
2022/07/19 09:16:48;;;;;;;;;;;;;;;21.37;100.00;101758.03;4881923;29;19903;-79
2022/07/19 09:19:14;;;;;;;;;;;;;;;21.39;100.00;101755.91;4900693;29;20287;-79
2022/07/19 09:21:52;;;;;;;;;;;;;;;21.34;100.00;101766.72;4909109;29;19926;-78
2022/07/19 09:24:21;;;;;;;;;;;;;;;21.28;100.00;101764.97;4886292;29;19919;-78
2022/07/19 09:27:03;;;;;;;;;;;;;;;21.19;100.00;101774.66;4888589;29;19932;-78
2022/07/19 09:29:29;;;;;;;;;;;;;;;21.21;100.00;101777.97;4922258;29;19915;-79
2022/07/19 09:32:09;;;;;;;;;;;;;;;21.22;100.00;101771.41;4889277;29;19931;-79
2022/07/19 09:34:48;;;;;;;;;;;;;;;21.27;100.00;101768.78;4902334;29;19929;-79
2022/07/19 09:37:21;;;;;;;;;;;;;;;21.31;100.00;101775.41;4890542;29;20047;-78
2022/07/19 09:39:48;;;;;;;;;;;;;;;21.24;100.00;101786.53;4904415;29;19915;-78
2022/07/19 09:42:14;;;;;;;;;;;;;;;21.27;100.00;101785.22;4903229;29;19939;-78
2022/07/19 09:44:40;;;;;;;;;;;;;;;21.20;100.00;101787.28;4887657;29;19919;-79
2022/07/19 09:47:05;;;;;;;;;;;;;;;21.13;100.00;101786.59;4904246;29;19920;-81
2022/07/19 09:49:30;;;;;;;;;;;;;;;21.10;100.00;101786.00;4889550;29;19920;-82
2022/07/19 09:51:56;;;;;;;;;;;;;;;21.13;100.00;101784.69;4889109;29;20267;-81
2022/07/19 09:54:22;;;;;;;;;;;;;;;21.13;100.00;101783.88;4873163;29;20333;-81
2022/07/19 09:56:49;;;;;;;;;;;;;;;21.14;100.00;101777.31;4905797;29;19967;-81
2022/07/19 09:59:15;;;;;;;;;;;;;;;21.15;100.00;101771.56;4889974;29;20338;-80
2022/07/19 10:01:42;;;;;;;;;;;;;;;21.08;100.00;101782.69;4889452;29;19965;-80
2022/07/19 10:04:08;;;;;;;;;;;;;;;21.18;100.00;101783.94;4890060;29;19943;-81
2022/07/19 10:06:36;;;;;;;;;;;;;;;21.16;100.00;101781.47;4906753;29;19915;-81
2022/07/19 10:09:03;;;;;;;;;;;;;;;21.19;100.00;101772.75;4906530;29;19924;-81
2022/07/19 10:11:29;;;;;;;;;;;;;;;21.23;100.00;101771.19;4907020;29;19934;-81
2022/07/19 10:13:55;;;;;;;;;;;;;;;21.22;100.00;101776.91;4874408;29;20384;-81
2022/07/19 10:16:47;;;;;;;;;;;;;;;21.14;100.00;101780.03;4889826;29;19915;-81
2022/07/19 10:19:19;;;;;;;;;;;;;;;21.13;100.00;101773.75;4888720;29;20366;-81
2022/07/19 10:21:46;;;;;;;;;;;;;;;21.19;100.00;101782.84;4899529;29;19926;-81
2022/07/19 10:24:12;;;;;;;;;;;;;;;21.35;100.00;101776.59;4909291;29;19926;-81
2022/07/19 10:26:37;;;;;;;;;;;;;;;21.41;100.00;101780.28;4930717;29;19919;-82
2022/07/19 10:29:06;;;;;;;;;;;;;;;21.38;100.00;101783.50;4931440;29;19919;-81
2022/07/19 10:31:31;;;;;;;;;;;;;;;21.35;100.00;101771.97;4898776;29;19920;-81
2022/07/19 10:34:01;;;;;;;;;;;;;;;21.45;100.00;101768.56;4886125;29;19920;-81
2022/07/19 10:36:30;;;;;;;;;;;;;;;21.51;100.00;101774.97;4887464;29;19916;-81
2022/07/19 10:39:33;;;;;;;;;;;;;;;21.58;100.00;101776.44;4886559;29;19967;-81
2022/07/19 10:42:07;;;;;;;;;;;;;;;21.55;100.00;101766.00;4797480;29;19921;-81
2022/07/19 10:44:33;;;;;;;;;;;;;;;21.55;100.00;101763.25;4861618;29;19919;-81
2022/07/19 10:46:58;;;;;;;;;;;;;;;21.52;100.00;101771.13;4871884;29;19974;-81
2022/07/19 10:49:40;;;;;;;;;;;;;;;21.51;100.00;101773.06;4871711;29;20003;-81
2022/07/19 10:52:24;;;;;;;;;;;;;;;21.53;100.00;101773.66;4872033;29;20320;-81
2022/07/19 10:55:08;;;;;;;;;;;;;;;21.65;100.00;101786.41;4888296;29;19931;-80
2022/07/19 10:57:37;;;;;;;;;;;;;;;21.66;100.00;101774.41;4896667;29;19926;-81
2022/07/19 11:00:15;;;;;;;;;;;;;;;21.63;100.00;101770.25;4901657;29;19941;-81
2022/07/19 11:02:40;;;;;;;;;;;;;;;21.58;100.00;101773.72;4903263;29;19998;-81
2022/07/19 11:05:05;;;;;;;;;;;;;;;21.58;100.00;101770.16;4918640;29;19934;-82
2022/07/19 11:07:31;;;;;;;;;;;;;;;21.69;100.00;101768.38;4933930;29;20357;-81
2022/07/19 11:09:57;;;;;;;;;;;;;;;21.70;100.00;101761.84;4916007;29;19920;-81
2022/07/19 11:12:22;;;;;;;;;;;;;;;21.62;100.00;101770.47;4924468;29;19930;-81
2022/07/19 11:14:47;;;;;;;;;;;;;;;21.54;100.00;101766.25;4922927;29;19978;-81
2022/07/19 11:17:12;;;;;;;;;;;;;;;21.53;100.00;101773.66;4893305;29;19969;-80
2022/07/19 11:19:55;;;;;;;;;;;;;;;21.44;100.00;101768.81;4899451;29;19915;-79
2022/07/19 11:22:21;;;;;;;;;;;;;;;21.38;100.00;101775.28;4895362;29;19924;-80
2022/07/19 11:24:46;;;;;;;;;;;;;;;21.46;100.00;101783.13;4883508;29;19963;-80
2022/07/19 11:27:12;;;;;;;;;;;;;;;21.55;100.00;101787.06;4883373;29;19979;-81
2022/07/19 11:29:56;;;;;;;;;;;;;;;21.61;100.00;101777.03;4867091;29;19916;-80
2022/07/19 11:32:21;;;;;;;;;;;;;;;21.60;100.00;101783.59;4889055;29;19934;-80
2022/07/19 11:35:01;;;;;;;;;;;;;;;21.63;100.00;101785.84;4897086;29;19949;-82
2022/07/19 11:37:32;;;;;;;;;;;;;;;21.70;100.00;101790.06;4891169;29;19932;-80
2022/07/19 11:39:57;;;;;;;;;;;;;;;21.74;100.00;101785.75;4890329;29;19919;-79
2022/07/19 11:42:29;;;;;;;;;;;;;;;21.70;100.00;101794.72;4919757;29;20343;-80
2022/07/19 11:44:54;;;;;;;;;;;;;;;21.84;100.00;101798.78;4915220;29;19925;-80
2022/07/19 11:47:20;;;;;;;;;;;;;;;21.89;100.00;101787.09;4923276;29;20017;-80
2022/07/19 11:49:45;;;;;;;;;;;;;;;21.90;100.00;101789.56;4891116;29;19931;-80
2022/07/19 11:52:10;;;;;;;;;;;;;;;21.94;100.00;101792.63;4925471;29;19943;-80
2022/07/19 11:54:38;;;;;;;;;;;;;;;22.03;100.00;101799.34;4924944;29;20036;-81
2022/07/19 11:57:03;;;;;;;;;;;;;;;22.11;100.00;101793.41;4902988;29;19942;-79
2022/07/19 11:59:28;;;;;;;;;;;;;;;22.19;100.00;101798.53;4903524;29;20002;-79
2022/07/19 12:01:54;;;;;;;;;;;;;;;22.25;100.00;101792.03;4887542;29;20075;-79
2022/07/19 12:04:20;;;;;;;;;;;;;;;22.23;99.53;101794.19;4919981;29;19930;-80
2022/07/19 12:06:47;;;;;;;;;;;;;;;22.23;99.09;101790.63;4919875;29;19942;-79
2022/07/19 12:09:16;;;;;;;;;;;;;;;22.27;99.32;101794.50;4903370;29;20349;-79
2022/07/19 12:11:45;;;;;;;;;;;;;;;22.27;99.77;101795.31;4913496;29;19951;-79
2022/07/19 12:14:20;;;;;;;;;;;;;;;22.21;99.49;101790.84;4895764;29;19961;-79
2022/07/19 12:16:46;;;;;;;;;;;;;;;22.25;98.18;101778.31;4896222;29;19939;-78
2022/07/19 12:19:14;;;;;;;;;;;;;;;22.27;99.13;101786.28;4881863;29;20345;-78
2022/07/19 12:21:42;;;;;;;;;;;;;;;22.32;98.92;101788.25;4883256;29;19915;-78
2022/07/19 12:24:11;;;;;;;;;;;;;;;22.37;97.52;101774.63;4898665;29;20405;-79
2022/07/19 12:26:37;;;;;;;;;;;;;;;22.38;95.84;101774.34;4899503;29;20347;-79